Dowell, IL (62927)

3:17 PM CDT on September 29, 2016 (GMT -0500)
Mulkeytown Fresh Farm | | Change Station

Elev 437 ft 37.95 °N, 89.12 °W | Updated 4 minutes ago

Overcast
Overcast
64.0 °F
Feels Like 64.0 °F
N
7.0
Wind Variable Wind from North
Gusts 7.0 mph

Today
High -- | Low -- °F
--% Chance of Precip.
Yesterday
High -- | Low -- °F
Precip. -- in
Pressure 30.13 in
Visibility 10.0 miles
Clouds Few 2600 ft
Scattered Clouds 3300 ft
Overcast 7500 ft
Dew Point 57 °F
Humidity 79%
Rainfall 0.00 in
Snow Depth Not available.
6:51 AM 6:42 PM
Waning Crescent, 1% visible
METAR KMDH 291952Z 33012G20KT 10SM FEW026 SCT033 OVC075 18/13 A3013 RMK AO2 SLP201 T01780133
Pressure 30.13 in
Visibility 10.0 miles
Clouds Few 2600 ft
Scattered Clouds 3300 ft
Overcast 7500 ft
Dew Point 57 °F
Humidity 79%
Rainfall 0.00 in
Snow Depth Not available.
6:51 AM 6:42 PM
Waning Crescent, 1% visible
METAR KMDH 291952Z 33012G20KT 10SM FEW026 SCT033 OVC075 18/13 A3013 RMK AO2 SLP201 T01780133

10-Day Weather Forecast

Almanac

Astronomy

Sep. 29, 2016 Rise Set
Actual Time
Civil Twilight
Nautical Twilight
Astronomical Twilight
Moon
Length of Visible Light
Length of Day
Tomorrow will be .
, % of the Moon is Illuminated

Today's Extremes

State Highs State Lows

Community

WunderPhotos

Upload Photos

1,942,560 photos uploaded!

WunderBlog® & News

Nearby

Air Quality

  Air Quality AQ Index Pollutant
Not available.

Snow Depth

Station Depth Elevation

Earthquake Activity

City Distance Mag. Time & Date
Minimum magnitude displayed is 2.5.

Coastal Water Temperatures

Place Temperature

Stations

Nearby Weather Stations

Station Location Temp. Windchill Dew Point Humidity Wind Precip. Elev Updated Type
                   

Watches & Warnings

There are currently no watches in effect.